Time;durP1;ratioP1;P1;durP2;ratioP2;P2;SDS_P1;SDS_P2;PMS_P1;PMS_P2;Temp;Humidity;BMP_temperature;BMP_pressure;BME280_temperature;BME280_humidity;BME280_pressure;Samples;Min_cycle;Max_cycle;Signal;HPM_P1;HPM_P2
2023/05/08 00:00:45;;;;;;;15.70;11.50;;;11.20;99.90;;;;;;5013429;28;20049;-54
2023/05/08 00:03:10;;;;;;;12.60;11.30;;;11.30;99.90;;;;;;5012965;28;20073;-53
2023/05/08 00:05:36;;;;;;;12.43;10.93;;;11.30;99.90;;;;;;5012931;28;20128;-53
2023/05/08 00:08:02;;;;;;;12.93;10.90;;;11.20;99.90;;;;;;5013326;28;20113;-53
2023/05/08 00:10:28;;;;;;;12.90;11.45;;;11.20;99.90;;;;;;5003970;28;20046;-53
2023/05/08 00:12:54;;;;;;;12.45;10.90;;;11.50;99.90;;;;;;4993135;28;20054;-53
2023/05/08 00:15:20;;;;;;;13.00;11.65;;;11.10;99.90;;;;;;4993238;28;20488;-52
2023/05/08 00:17:46;;;;;;;13.25;11.35;;;11.10;99.90;;;;;;4991957;28;20058;-54
2023/05/08 00:20:12;;;;;;;13.63;11.05;;;11.00;99.90;;;;;;4993500;28;20436;-53
2023/05/08 00:22:37;;;;;;;13.18;11.77;;;10.90;99.90;;;;;;4992991;28;20050;-54
2023/05/08 00:25:04;;;;;;;13.95;11.90;;;11.00;99.90;;;;;;4992426;28;20162;-52
2023/05/08 00:27:30;;;;;;;13.20;11.75;;;10.90;99.90;;;;;;4991921;28;20050;-51
2023/05/08 00:29:56;;;;;;;13.32;11.52;;;10.80;99.90;;;;;;4991909;28;20047;-53
2023/05/08 00:32:23;;;;;;;13.95;11.82;;;10.70;99.90;;;;;;4991923;28;20121;-55
2023/05/08 00:34:48;;;;;;;14.10;12.68;;;10.70;99.90;;;;;;4991905;28;20096;-53
2023/05/08 00:37:14;;;;;;;12.30;11.00;;;10.60;99.90;;;;;;4992231;28;20131;-52
2023/05/08 00:39:40;;;;;;;16.05;12.35;;;10.70;99.90;;;;;;4992991;28;20049;-54
2023/05/08 00:42:05;;;;;;;13.05;11.45;;;10.60;99.90;;;;;;4992875;28;20054;-53
2023/05/08 00:44:31;;;;;;;13.23;11.82;;;10.60;99.90;;;;;;4993098;28;20432;-51
2023/05/08 00:46:57;;;;;;;14.35;12.50;;;10.50;99.90;;;;;;4992265;28;20384;-54
2023/05/08 00:49:24;;;;;;;13.80;12.05;;;11.30;99.90;;;;;;4992651;28;20038;-54
2023/05/08 00:51:53;;;;;;;16.05;12.13;;;10.60;99.90;;;;;;4993047;28;20046;-53
2023/05/08 00:54:19;;;;;;;14.15;12.52;;;10.50;99.90;;;;;;4992447;28;20354;-51
2023/05/08 00:56:45;;;;;;;13.35;11.95;;;10.50;99.90;;;;;;4992529;28;20132;-54
2023/05/08 00:59:13;;;;;;;14.30;12.80;;;10.70;99.90;;;;;;4992707;28;20105;-52
2023/05/08 01:01:40;;;;;;;15.30;12.88;;;10.60;99.90;;;;;;4992414;28;20050;-53
2023/05/08 01:04:06;;;;;;;13.65;12.07;;;10.30;99.90;;;;;;4992333;28;20050;-53
2023/05/08 01:06:35;;;;;;;14.00;11.88;;;10.70;99.90;;;;;;4992442;28;20039;-52
2023/05/08 01:09:02;;;;;;;13.93;12.43;;;10.10;99.90;;;;;;4992144;28;20129;-51
2023/05/08 01:11:50;;;;;;;13.73;12.13;;;10.10;99.90;;;;;;5009441;28;20049;-52
2023/05/08 01:14:20;;;;;;;14.07;12.40;;;10.40;99.90;;;;;;5012172;28;20134;-52
2023/05/08 01:17:04;;;;;;;14.52;12.35;;;10.80;99.90;;;;;;5012167;28;20053;-53
2023/05/08 01:20:01;;;;;;;14.50;12.50;;;10.30;99.90;;;;;;5011803;28;20050;-53
2023/05/08 01:22:52;;;;;;;15.13;12.82;;;10.30;99.90;;;;;;5011368;28;20090;-53
2023/05/08 01:25:42;;;;;;;15.55;12.48;;;10.20;99.90;;;;;;5011479;28;20137;-52
2023/05/08 01:28:27;;;;;;;14.57;13.07;;;10.20;99.90;;;;;;5011655;28;20038;-53
2023/05/08 01:30:58;;;;;;;15.38;12.45;;;10.10;99.90;;;;;;5011531;28;20128;-53
2023/05/08 01:33:50;;;;;;;14.65;12.63;;;10.10;99.90;;;;;;5011314;28;20050;-54
2023/05/08 01:36:55;;;;;;;14.30;12.25;;;10.10;99.90;;;;;;5011184;28;20065;-53
2023/05/08 01:39:33;;;;;;;13.35;11.82;;;10.00;99.90;;;;;;5011527;28;20128;-52
2023/05/08 01:42:06;;;;;;;14.43;12.27;;;10.70;99.90;;;;;;5011219;28;20407;-52
2023/05/08 01:44:48;;;;;;;15.13;13.52;;;10.00;99.90;;;;;;5010975;28;20045;-52
2023/05/08 01:47:15;;;;;;;15.38;13.73;;;10.00;99.90;;;;;;5011587;28;20053;-52
2023/05/08 01:49:45;;;;;;;15.63;13.32;;;9.70;99.90;;;;;;5011073;28;20051;-54
2023/05/08 01:52:34;;;;;;;15.85;13.50;;;10.20;99.90;;;;;;5011231;28;20052;-53
2023/05/08 01:55:14;;;;;;;16.17;13.48;;;9.70;99.90;;;;;;5010984;28;20765;-51
2023/05/08 01:57:49;;;;;;;14.07;12.50;;;9.80;99.90;;;;;;5010905;28;20045;-52
2023/05/08 02:00:20;;;;;;;15.23;13.63;;;9.70;99.90;;;;;;5010292;28;20052;-51
2023/05/08 02:02:48;;;;;;;15.15;12.77;;;10.20;99.90;;;;;;5010905;28;20128;-52
2023/05/08 02:05:15;;;;;;;14.95;12.90;;;10.20;99.90;;;;;;5010637;28;20116;-53
2023/05/08 02:07:42;;;;;;;16.30;14.05;;;10.30;99.90;;;;;;5010817;28;20077;-52
2023/05/08 02:10:10;;;;;;;15.23;13.07;;;9.70;99.90;;;;;;5011003;28;20045;-52
2023/05/08 02:12:36;;;;;;;17.67;14.20;;;9.70;99.90;;;;;;5010864;28;20097;-52
2023/05/08 02:15:04;;;;;;;16.85;13.85;;;9.70;99.90;;;;;;5011036;28;20042;-52
2023/05/08 02:17:31;;;;;;;16.70;12.98;;;9.70;99.90;;;;;;5011282;28;20368;-51
2023/05/08 02:19:59;;;;;;;15.38;12.93;;;9.60;99.90;;;;;;5010742;28;20081;-53
2023/05/08 02:22:26;;;;;;;17.55;13.38;;;9.80;99.90;;;;;;5010557;28;20077;-52
2023/05/08 02:24:56;;;;;;;15.38;12.85;;;9.70;99.90;;;;;;5010920;28;20502;-52
2023/05/08 02:27:25;;;;;;;18.20;15.40;;;9.50;99.90;;;;;;5010727;28;20097;-52
2023/05/08 02:29:53;;;;;;;15.25;13.30;;;9.90;99.90;;;;;;5010538;28;20053;-52
2023/05/08 02:32:20;;;;;;;14.68;12.50;;;9.60;99.90;;;;;;5010515;28;20744;-51
2023/05/08 02:34:48;;;;;;;18.08;13.68;;;10.90;99.90;;;;;;5010558;28;20045;-52
2023/05/08 02:37:17;;;;;;;15.15;13.10;;;9.60;99.90;;;;;;5010751;28;20034;-51
2023/05/08 02:39:44;;;;;;;15.32;13.40;;;10.30;99.90;;;;;;5010417;28;20050;-51
2023/05/08 02:42:10;;;;;;;15.15;13.55;;;9.40;99.90;;;;;;5010522;28;20037;-53
2023/05/08 02:44:36;;;;;;;16.33;12.80;;;10.10;99.90;;;;;;5010637;28;20125;-52
2023/05/08 02:47:20;;;;;;;16.65;14.15;;;9.40;99.90;;;;;;5010421;28;20432;-52
2023/05/08 02:50:34;;;;;;;14.75;12.23;;;10.10;99.90;;;;;;5010808;28;20038;-51
2023/05/08 02:53:05;;;;;;;18.02;12.20;;;9.40;99.90;;;;;;5008844;28;20053;-51
2023/05/08 02:55:47;;;;;;;16.75;13.55;;;9.90;99.90;;;;;;5010431;28;20057;-52
2023/05/08 02:58:39;;;;;;;17.38;12.95;;;9.30;99.90;;;;;;5010450;28;20076;-52
2023/05/08 03:01:20;;;;;;;16.85;13.02;;;9.30;99.90;;;;;;5010276;28;21145;-52
2023/05/08 03:03:53;;;;;;;16.83;13.45;;;9.20;99.90;;;;;;5010070;28;20120;-51
2023/05/08 03:06:23;;;;;;;15.70;13.10;;;9.20;99.90;;;;;;5010092;28;20049;-49
2023/05/08 03:08:50;;;;;;;16.20;13.00;;;9.10;99.90;;;;;;5010351;28;20041;-51
2023/05/08 03:11:21;;;;;;;17.17;14.48;;;9.10;99.90;;;;;;4997856;28;20112;-51
2023/05/08 03:13:48;;;;;;;17.65;13.57;;;9.70;99.90;;;;;;4994465;28;20046;-51
2023/05/08 03:16:21;;;;;;;16.73;13.57;;;9.00;99.90;;;;;;4994722;28;20161;-51
2023/05/08 03:18:55;;;;;;;16.48;13.65;;;9.00;99.90;;;;;;4993711;28;20051;-52
2023/05/08 03:21:27;;;;;;;16.17;12.93;;;9.00;99.90;;;;;;4993413;28;20117;-51
2023/05/08 03:23:53;;;;;;;16.00;13.03;;;8.90;99.90;;;;;;4993391;28;20381;-50
2023/05/08 03:26:20;;;;;;;18.08;12.88;;;8.90;99.90;;;;;;4992937;28;20034;-53
2023/05/08 03:28:50;;;;;;;18.27;13.65;;;9.90;99.90;;;;;;4993354;28;20451;-52
2023/05/08 03:31:20;;;;;;;15.90;12.82;;;9.70;99.90;;;;;;4993363;28;20061;-50
2023/05/08 03:33:47;;;;;;;16.42;12.73;;;8.90;99.90;;;;;;4993744;28;20540;-52
2023/05/08 03:36:16;;;;;;;18.10;13.02;;;8.70;99.90;;;;;;4994213;28;20050;-52
2023/05/08 03:38:42;;;;;;;18.80;14.07;;;8.90;99.90;;;;;;4994175;28;20456;-52
2023/05/08 03:41:08;;;;;;;15.63;12.80;;;8.60;99.90;;;;;;4993665;28;20027;-51
2023/05/08 03:43:36;;;;;;;16.67;12.98;;;8.70;99.90;;;;;;4994002;28;20044;-50
2023/05/08 03:46:05;;;;;;;17.45;13.05;;;9.50;99.90;;;;;;4994144;28;20050;-52
2023/05/08 03:48:35;;;;;;;15.15;12.43;;;8.80;99.90;;;;;;4993918;28;20077;-52
2023/05/08 03:51:02;;;;;;;15.77;12.43;;;8.70;99.90;;;;;;4993913;28;20047;-48
2023/05/08 03:53:31;;;;;;;15.20;12.68;;;8.70;99.90;;;;;;4993777;28;20089;-51
2023/05/08 03:55:58;;;;;;;16.52;12.43;;;8.40;99.90;;;;;;4993660;28;20129;-51
2023/05/08 03:58:55;;;;;;;15.35;13.07;;;9.10;99.90;;;;;;4993790;28;20038;-49
2023/05/08 04:01:39;;;;;;;15.23;12.77;;;8.60;99.90;;;;;;4993133;28;20814;-50
2023/05/08 04:04:18;;;;;;;15.70;12.95;;;8.60;99.90;;;;;;4992931;28;20120;-52
2023/05/08 04:06:49;;;;;;;15.38;12.75;;;8.60;99.90;;;;;;5008333;28;20104;-52
2023/05/08 04:09:36;;;;;;;16.35;12.68;;;8.40;99.90;;;;;;4993618;28;20034;-51
2023/05/08 04:12:13;;;;;;;15.90;12.45;;;8.50;99.90;;;;;;4993352;28;20065;-50
2023/05/08 04:14:47;;;;;;;14.18;12.25;;;8.80;99.90;;;;;;4993036;28;20046;-52
2023/05/08 04:17:21;;;;;;;14.88;12.50;;;8.20;99.90;;;;;;4993407;28;20057;-49
2023/05/08 04:19:54;;;;;;;14.77;12.00;;;8.50;99.90;;;;;;4993585;28;20054;-52
2023/05/08 04:22:23;;;;;;;15.50;12.32;;;9.20;99.90;;;;;;4992158;28;20043;-52
2023/05/08 04:24:50;;;;;;;14.10;11.68;;;8.50;99.90;;;;;;4993692;28;20060;-51
2023/05/08 04:27:16;;;;;;;15.65;11.90;;;8.50;99.90;;;;;;4993568;28;20140;-51
2023/05/08 04:29:42;;;;;;;17.33;13.35;;;8.50;99.90;;;;;;4993508;28;20073;-52
2023/05/08 04:32:09;;;;;;;16.92;12.85;;;8.50;99.90;;;;;;4993027;28;20480;-51
2023/05/08 04:34:35;;;;;;;17.48;13.15;;;8.30;99.90;;;;;;4992984;28;20070;-52
2023/05/08 04:37:01;;;;;;;19.73;13.65;;;8.40;99.90;;;;;;4992979;28;20042;-52
2023/05/08 04:39:27;;;;;;;16.98;13.57;;;8.50;99.90;;;;;;4993208;28;20042;-53
2023/05/08 04:41:54;;;;;;;16.45;12.35;;;8.40;99.90;;;;;;4993019;28;20038;-52
2023/05/08 04:44:20;;;;;;;16.17;12.32;;;8.50;99.90;;;;;;4992785;28;20404;-49
2023/05/08 04:46:45;;;;;;;16.85;13.38;;;8.60;99.90;;;;;;4992566;28;20050;-52
2023/05/08 04:49:11;;;;;;;15.90;13.35;;;8.60;99.90;;;;;;4992965;28;20034;-51
2023/05/08 04:51:37;;;;;;;15.60;12.50;;;8.60;99.90;;;;;;4991440;28;20042;-50
2023/05/08 04:54:02;;;;;;;15.23;12.55;;;9.10;99.90;;;;;;4992915;28;20042;-51
2023/05/08 04:56:28;;;;;;;15.30;12.30;;;8.80;99.90;;;;;;4992872;28;20062;-52
2023/05/08 04:58:54;;;;;;;14.63;12.38;;;8.80;99.90;;;;;;4992866;28;20392;-51
2023/05/08 05:01:19;;;;;;;13.27;11.15;;;8.90;99.90;;;;;;4992466;28;20053;-53
2023/05/08 05:03:45;;;;;;;13.10;11.70;;;9.30;99.90;;;;;;4992386;28;20038;-52
2023/05/08 05:06:11;;;;;;;15.68;12.52;;;9.10;99.90;;;;;;4992511;28;20046;-51
2023/05/08 05:08:36;;;;;;;14.15;11.57;;;8.80;99.90;;;;;;4992358;28;20053;-54
2023/05/08 05:11:02;;;;;;;14.65;12.20;;;9.00;99.90;;;;;;5005923;28;20403;-52
2023/05/08 05:13:28;;;;;;;14.93;11.98;;;9.10;99.90;;;;;;5012079;28;20488;-51
2023/05/08 05:15:53;;;;;;;15.13;12.18;;;9.00;99.90;;;;;;5012176;28;20041;-52
2023/05/08 05:18:20;;;;;;;13.00;11.60;;;9.40;99.90;;;;;;5011760;28;20045;-54
2023/05/08 05:20:45;;;;;;;15.60;11.95;;;9.60;99.90;;;;;;5012188;28;20420;-51
2023/05/08 05:23:11;;;;;;;14.20;12.70;;;9.70;99.90;;;;;;5011409;28;20108;-52
2023/05/08 05:25:37;;;;;;;12.65;11.02;;;10.10;99.90;;;;;;5011600;28;20045;-51
2023/05/08 05:28:03;;;;;;;11.85;10.35;;;10.90;99.90;;;;;;5011526;28;20793;-52
2023/05/08 05:30:29;;;;;;;12.23;10.52;;;10.80;99.90;;;;;;5011564;28;20038;-53
2023/05/08 05:32:54;;;;;;;11.63;10.40;;;10.60;99.90;;;;;;5011344;28;20115;-51
2023/05/08 05:35:20;;;;;;;12.88;11.00;;;11.00;99.90;;;;;;5011292;28;20050;-52
2023/05/08 05:37:46;;;;;;;11.98;10.77;;;11.00;99.90;;;;;;5010271;28;20033;-53
2023/05/08 05:40:14;;;;;;;14.85;11.02;;;11.20;99.90;;;;;;5010209;28;20125;-53
2023/05/08 05:42:40;;;;;;;11.60;10.07;;;11.50;99.90;;;;;;5009815;28;20503;-54
2023/05/08 05:45:07;;;;;;;11.65;9.80;;;11.90;99.90;;;;;;5010214;28;20121;-53
2023/05/08 05:47:32;;;;;;;11.13;9.50;;;11.90;99.90;;;;;;5010396;28;20400;-53
2023/05/08 05:49:58;;;;;;;12.07;10.20;;;12.20;99.90;;;;;;5010272;28;20030;-55
2023/05/08 05:52:24;;;;;;;10.00;9.07;;;12.40;99.90;;;;;;5010719;28;20466;-53
2023/05/08 05:54:49;;;;;;;10.05;9.05;;;12.70;99.90;;;;;;5011225;28;20053;-54
2023/05/08 05:57:15;;;;;;;12.02;10.40;;;12.90;99.90;;;;;;5010906;28;20045;-54
2023/05/08 05:59:41;;;;;;;10.45;9.35;;;13.20;99.90;;;;;;5011121;28;20073;-53
2023/05/08 06:02:09;;;;;;;10.43;9.30;;;13.60;99.90;;;;;;5010889;28;20042;-55
2023/05/08 06:04:35;;;;;;;10.50;8.73;;;13.80;99.90;;;;;;5010718;28;20040;-52
2023/05/08 06:07:00;;;;;;;10.10;9.00;;;14.10;99.90;;;;;;5010845;28;20495;-54
2023/05/08 06:09:26;;;;;;;9.63;8.63;;;14.30;99.90;;;;;;5010724;28;20045;-55
2023/05/08 06:11:52;;;;;;;14.27;9.30;;;14.50;99.90;;;;;;5010910;28;20045;-53
2023/05/08 06:14:17;;;;;;;9.45;8.45;;;15.10;99.80;;;;;;5010998;28;20583;-52
2023/05/08 06:16:43;;;;;;;9.82;8.40;;;15.50;99.50;;;;;;5010947;28;20411;-54
2023/05/08 06:19:09;;;;;;;9.85;8.23;;;15.40;99.20;;;;;;5025757;28;20053;-53
2023/05/08 06:21:36;;;;;;;9.88;8.88;;;15.20;98.90;;;;;;5010436;28;20046;-54
2023/05/08 06:24:02;;;;;;;9.55;8.38;;;14.90;97.90;;;;;;5010450;28;20054;-53
2023/05/08 06:26:28;;;;;;;10.98;8.90;;;14.60;98.50;;;;;;5010643;28;20046;-51
2023/05/08 06:28:53;;;;;;;9.77;8.77;;;14.40;99.00;;;;;;5010667;28;20045;-53
2023/05/08 06:31:19;;;;;;;9.77;8.77;;;14.30;99.20;;;;;;5010622;28;20100;-52
2023/05/08 06:33:45;;;;;;;10.88;9.13;;;14.10;99.20;;;;;;5009237;28;20048;-54
2023/05/08 06:36:11;;;;;;;9.68;8.68;;;14.10;99.50;;;;;;5010676;28;20045;-53
2023/05/08 06:38:37;;;;;;;8.57;7.68;;;14.00;99.30;;;;;;5010688;28;20041;-52
2023/05/08 06:41:02;;;;;;;9.13;7.75;;;13.80;99.40;;;;;;5010702;28;20040;-54
2023/05/08 06:43:29;;;;;;;9.95;8.75;;;13.70;99.90;;;;;;5010643;28;20042;-53
2023/05/08 06:45:55;;;;;;;11.43;9.52;;;13.50;99.90;;;;;;5008824;28;20148;-53
2023/05/08 06:48:20;;;;;;;10.93;9.40;;;13.40;99.80;;;;;;5010678;28;20124;-53
2023/05/08 06:50:46;;;;;;;12.25;9.18;;;13.30;99.90;;;;;;5010686;28;20176;-53
2023/05/08 06:53:12;;;;;;;10.30;8.95;;;13.20;99.90;;;;;;5010869;28;20042;-54
2023/05/08 06:55:41;;;;;;;10.48;9.07;;;13.20;99.90;;;;;;5010422;28;20053;-53
2023/05/08 06:58:07;;;;;;;9.38;8.43;;;13.30;99.90;;;;;;5010731;28;20050;-54
2023/05/08 07:00:32;;;;;;;9.88;8.77;;;13.30;99.90;;;;;;5010345;28;20041;-53
2023/05/08 07:02:58;;;;;;;9.88;8.70;;;13.20;99.90;;;;;;5010121;28;20128;-53
2023/05/08 07:05:23;;;;;;;10.10;9.05;;;13.20;99.90;;;;;;5010216;28;20042;-54
2023/05/08 07:07:49;;;;;;;10.63;9.52;;;13.30;99.90;;;;;;5010411;28;20468;-53
2023/05/08 07:10:18;;;;;;;10.68;9.15;;;13.20;99.90;;;;;;5003077;28;20049;-54
2023/05/08 07:12:44;;;;;;;10.57;9.20;;;13.20;99.90;;;;;;4990681;28;20046;-54
2023/05/08 07:15:10;;;;;;;12.55;9.98;;;13.10;99.90;;;;;;4991005;28;20034;-53
2023/05/08 07:17:36;;;;;;;13.05;9.98;;;13.20;99.90;;;;;;4990971;28;20474;-54
2023/05/08 07:20:03;;;;;;;10.32;9.32;;;13.10;99.90;;;;;;4990997;28;20042;-54
2023/05/08 07:22:28;;;;;;;10.55;9.30;;;13.30;99.90;;;;;;4991164;28;20086;-54
2023/05/08 07:24:54;;;;;;;12.25;9.13;;;13.30;99.90;;;;;;4990244;28;20413;-53
2023/05/08 07:27:20;;;;;;;13.98;10.43;;;13.30;99.90;;;;;;4990397;28;20473;-54
2023/05/08 07:29:46;;;;;;;9.82;8.82;;;13.50;99.90;;;;;;5005401;28;20077;-52
2023/05/08 07:32:11;;;;;;;10.63;9.52;;;13.50;99.90;;;;;;4990278;28;20092;-53
2023/05/08 07:34:37;;;;;;;10.38;9.32;;;13.60;99.90;;;;;;4990260;28;20101;-52
2023/05/08 07:37:03;;;;;;;10.95;9.88;;;13.70;99.90;;;;;;4990509;28;20105;-54
2023/05/08 07:39:28;;;;;;;12.48;10.10;;;14.00;99.90;;;;;;4990525;28;20497;-53
2023/05/08 07:41:54;;;;;;;11.23;10.07;;;13.90;99.90;;;;;;4990653;28;20469;-52
2023/05/08 07:44:19;;;;;;;10.68;9.57;;;14.00;99.90;;;;;;4990531;28;20042;-54
2023/05/08 07:46:45;;;;;;;10.90;9.75;;;14.20;99.90;;;;;;4990825;28;20362;-53
2023/05/08 07:49:11;;;;;;;10.75;9.45;;;14.30;99.90;;;;;;4990414;28;20636;-54
2023/05/08 07:51:36;;;;;;;10.82;9.73;;;14.40;99.90;;;;;;4990501;28;20540;-53
2023/05/08 07:54:02;;;;;;;12.25;9.73;;;14.60;99.90;;;;;;4990385;28;20097;-53
2023/05/08 07:56:28;;;;;;;10.95;9.00;;;14.60;99.90;;;;;;4990724;28;20038;-53
2023/05/08 07:58:53;;;;;;;12.77;10.45;;;14.80;99.90;;;;;;4992679;28;20129;-54
2023/05/08 08:01:19;;;;;;;10.32;9.18;;;14.90;99.90;;;;;;4993768;28;20050;-53
2023/05/08 08:03:45;;;;;;;10.70;9.60;;;15.00;99.90;;;;;;5008916;28;20046;-54
2023/05/08 08:06:11;;;;;;;10.98;9.85;;;15.10;99.90;;;;;;4994045;28;20038;-53
2023/05/08 08:08:36;;;;;;;10.40;9.25;;;15.20;99.60;;;;;;4993824;28;20034;-54
2023/05/08 08:11:02;;;;;;;10.73;9.57;;;15.20;99.50;;;;;;5007481;28;20050;-53
2023/05/08 08:13:28;;;;;;;10.80;9.70;;;15.30;99.40;;;;;;5013307;28;20073;-54
2023/05/08 08:15:54;;;;;;;10.40;9.30;;;15.70;99.40;;;;;;5013109;28;20054;-53
2023/05/08 08:18:19;;;;;;;10.05;9.02;;;16.20;99.40;;;;;;5012959;28;20053;-54
2023/05/08 08:20:45;;;;;;;11.30;10.18;;;16.80;99.10;;;;;;5013068;28;20092;-54
2023/05/08 08:23:10;;;;;;;10.23;9.18;;;17.30;99.90;;;;;;5012785;28;20184;-55
2023/05/08 08:25:36;;;;;;;9.90;8.88;;;17.80;99.90;;;;;;5012735;28;20077;-54
2023/05/08 08:28:02;;;;;;;10.48;9.48;;;18.10;99.90;;;;;;5013152;28;20033;-54
2023/05/08 08:30:28;;;;;;;9.88;8.98;;;18.50;97.00;;;;;;5013065;28;20827;-54
2023/05/08 08:32:53;;;;;;;9.48;8.52;;;18.70;96.80;;;;;;5013022;28;20541;-53
2023/05/08 08:35:19;;;;;;;9.98;8.63;;;18.90;96.20;;;;;;5012947;28;20045;-55
2023/05/08 08:37:45;;;;;;;10.38;9.38;;;19.20;95.00;;;;;;5012960;28;20054;-55
2023/05/08 08:40:10;;;;;;;9.50;8.50;;;19.40;94.80;;;;;;5012902;28;20411;-55
2023/05/08 08:42:36;;;;;;;9.30;8.40;;;19.60;94.50;;;;;;5013067;28;20054;-55
2023/05/08 08:45:02;;;;;;;9.73;8.82;;;19.80;94.60;;;;;;5011875;28;20038;-55
2023/05/08 08:47:33;;;;;;;9.27;8.38;;;20.00;93.70;;;;;;5012721;28;20046;-55
2023/05/08 08:50:02;;;;;;;10.00;9.00;;;20.20;93.60;;;;;;5013032;28;20077;-55
2023/05/08 08:52:47;;;;;;;10.40;9.40;;;20.50;92.50;;;;;;5012964;28;20045;-54
2023/05/08 08:55:15;;;;;;;10.38;9.15;;;20.80;92.00;;;;;;5012544;28;20452;-54
2023/05/08 08:57:51;;;;;;;10.25;9.23;;;21.10;91.40;;;;;;5012403;28;20044;-55
2023/05/08 09:00:19;;;;;;;10.07;9.15;;;21.30;90.80;;;;;;5012328;28;20623;-55
2023/05/08 09:02:45;;;;;;;10.35;9.35;;;21.70;90.50;;;;;;5012294;28;20049;-54
2023/05/08 09:05:11;;;;;;;11.00;9.98;;;22.00;89.50;;;;;;5011725;28;20033;-55
2023/05/08 09:07:39;;;;;;;10.15;9.13;;;22.30;87.00;;;;;;5011879;28;20030;-54
2023/05/08 09:10:06;;;;;;;10.32;9.32;;;22.60;86.70;;;;;;5021059;28;20038;-54
2023/05/08 09:12:32;;;;;;;9.88;8.93;;;22.80;85.80;;;;;;4992450;28;20050;-54
2023/05/08 09:14:57;;;;;;;10.43;8.30;;;22.90;84.30;;;;;;4992258;28;20129;-53
2023/05/08 09:17:23;;;;;;;10.50;9.40;;;23.00;83.70;;;;;;4992547;28;20042;-55
2023/05/08 09:19:49;;;;;;;11.13;8.57;;;23.10;83.50;;;;;;4992158;28;20042;-54
2023/05/08 09:22:16;;;;;;;10.55;9.55;;;23.20;83.50;;;;;;4991842;28;20534;-56
2023/05/08 09:25:08;;;;;;;10.40;9.48;;;23.30;83.50;;;;;;4992227;28;20058;-56
2023/05/08 09:27:35;;;;;;;10.45;9.25;;;23.30;83.20;;;;;;4990941;28;20050;-56
2023/05/08 09:30:13;;;;;;;11.50;9.82;;;23.20;81.70;;;;;;5007181;28;20477;-55
2023/05/08 09:32:41;;;;;;;11.02;10.02;;;23.20;81.00;;;;;;4991269;28;20049;-56
2023/05/08 09:35:08;;;;;;;10.10;9.20;;;23.10;81.60;;;;;;4991155;28;20057;-55
2023/05/08 09:37:41;;;;;;;10.85;9.85;;;22.90;82.00;;;;;;4991308;28;20050;-56
2023/05/08 09:40:21;;;;;;;11.40;10.30;;;22.80;81.80;;;;;;4991671;28;20050;-56
2023/05/08 09:42:48;;;;;;;11.88;10.68;;;22.70;80.50;;;;;;4991215;28;20061;-56
2023/05/08 09:45:29;;;;;;;10.40;9.50;;;22.50;81.60;;;;;;4991237;28;20053;-56
2023/05/08 09:47:54;;;;;;;13.10;10.00;;;22.40;83.60;;;;;;4991604;28;20527;-56
2023/05/08 09:50:20;;;;;;;12.30;11.10;;;22.30;83.10;;;;;;4991519;28;20039;-56
2023/05/08 09:52:47;;;;;;;11.60;10.40;;;22.20;82.00;;;;;;4991674;28;20093;-56
2023/05/08 09:55:13;;;;;;;12.50;11.32;;;22.10;80.90;;;;;;4991459;28;20042;-56
2023/05/08 09:57:50;;;;;;;10.93;9.93;;;21.90;80.30;;;;;;4991612;28;20038;-56
2023/05/08 10:00:16;;;;;;;12.02;10.93;;;21.80;81.60;;;;;;4991156;28;20038;-56
2023/05/08 10:02:57;;;;;;;13.60;11.57;;;21.70;81.60;;;;;;4991290;28;20049;-56
2023/05/08 10:05:31;;;;;;;12.85;11.57;;;21.60;82.70;;;;;;4991122;28;20046;-56
2023/05/08 10:08:18;;;;;;;11.85;10.63;;;21.50;82.00;;;;;;4991527;28;20042;-56
2023/05/08 10:10:43;;;;;;;11.48;10.43;;;21.50;83.50;;;;;;5002126;28;20045;-56
2023/05/08 10:13:09;;;;;;;12.40;11.13;;;21.60;83.90;;;;;;5010954;28;20042;-56
2023/05/08 10:15:37;;;;;;;12.48;11.18;;;21.50;83.20;;;;;;5009544;28;20475;-56
2023/05/08 10:18:05;;;;;;;11.95;10.85;;;21.60;82.90;;;;;;5011079;28;20042;-55
2023/05/08 10:20:33;;;;;;;11.27;10.10;;;21.60;83.10;;;;;;5010240;28;20081;-56
2023/05/08 10:22:59;;;;;;;11.50;10.50;;;21.60;83.40;;;;;;5010880;28;20056;-56
2023/05/08 10:25:31;;;;;;;12.95;11.13;;;21.60;83.60;;;;;;5011121;28;20046;-56
2023/05/08 10:28:20;;;;;;;;;;;21.60;84.10;;;;;;5011393;28;20503;-56
2023/05/08 10:30:49;;;;;;;12.35;11.15;;;21.60;84.60;;;;;;5010116;28;19997;-56
2023/05/08 10:33:20;;;;;;;11.77;10.68;;;21.60;83.80;;;;;;5010609;28;20046;-56
2023/05/08 10:35:46;;;;;;;12.47;11.37;;;21.60;81.70;;;;;;5010412;28;20143;-56
2023/05/08 10:38:15;;;;;;;13.32;10.73;;;21.50;83.00;;;;;;5010834;28;20060;-56
2023/05/08 10:40:41;;;;;;;12.40;11.23;;;21.40;83.50;;;;;;5010485;28;20042;-56
2023/05/08 10:43:08;;;;;;;12.40;11.20;;;21.40;83.90;;;;;;5010480;28;20135;-56
2023/05/08 10:45:35;;;;;;;12.63;11.38;;;21.60;84.40;;;;;;5009631;28;20450;-56
2023/05/08 10:48:21;;;;;;;12.32;10.93;;;21.50;82.70;;;;;;5010486;28;20041;-56
2023/05/08 10:51:22;;;;;;;14.45;12.25;;;21.50;82.60;;;;;;5010647;28;20060;-56
2023/05/08 10:54:25;;;;;;;12.50;11.30;;;21.40;83.90;;;;;;5010430;28;20061;-56
2023/05/08 10:56:52;;;;;;;13.48;12.07;;;21.30;81.60;;;;;;4999079;28;20563;-56
2023/05/08 10:59:18;;;;;;;12.38;11.18;;;21.10;83.50;;;;;;5009845;28;20049;-56
2023/05/08 11:01:48;;;;;;;14.13;12.65;;;21.10;84.10;;;;;;4997909;28;20093;-55
2023/05/08 11:04:21;;;;;;;12.95;11.65;;;21.00;84.20;;;;;;4991243;28;20041;-55
2023/05/08 11:06:51;;;;;;;14.50;12.55;;;21.00;84.00;;;;;;4990961;28;20350;-55
2023/05/08 11:09:25;;;;;;;14.43;13.02;;;20.90;84.20;;;;;;5006190;28;20140;-56
2023/05/08 11:12:15;;;;;;;15.18;13.68;;;20.80;84.20;;;;;;4991097;28;20050;-55
2023/05/08 11:14:42;;;;;;;14.75;13.25;;;20.70;85.30;;;;;;4991012;28;20121;-55
2023/05/08 11:17:08;;;;;;;14.13;12.80;;;20.60;85.20;;;;;;4990947;28;20098;-55
2023/05/08 11:19:35;;;;;;;15.30;13.75;;;20.60;85.20;;;;;;4990598;28;20125;-55
2023/05/08 11:22:12;;;;;;;15.10;13.60;;;20.60;85.40;;;;;;4990735;28;20503;-56
2023/05/08 11:24:45;;;;;;;14.23;12.82;;;20.60;85.80;;;;;;4990869;28;20140;-55
2023/05/08 11:27:11;;;;;;;14.93;13.50;;;21.30;86.20;;;;;;4990495;28;20161;-55
2023/05/08 11:29:37;;;;;;;14.82;13.43;;;20.60;86.20;;;;;;4990834;28;20125;-57
2023/05/08 11:32:03;;;;;;;14.30;12.90;;;20.70;87.10;;;;;;4991984;28;20046;-55
2023/05/08 11:34:41;;;;;;;12.98;11.77;;;20.70;87.60;;;;;;4994269;28;20053;-56
2023/05/08 11:37:21;;;;;;;12.15;10.52;;;20.80;86.50;;;;;;4994342;28;20054;-55
2023/05/08 11:39:47;;;;;;;14.32;11.80;;;20.80;87.80;;;;;;4994645;28;20042;-55
2023/05/08 11:42:27;;;;;;;13.60;12.30;;;20.90;87.30;;;;;;4994392;28;20121;-55
2023/05/08 11:45:09;;;;;;;14.55;13.00;;;20.90;86.60;;;;;;4994186;28;20578;-55
2023/05/08 11:47:35;;;;;;;;;;;20.90;87.50;;;;;;4994659;28;20047;-55
2023/05/08 11:50:01;;;;;;;12.82;11.52;;;20.90;85.60;;;;;;4994374;28;19964;-55
2023/05/08 11:52:30;;;;;;;12.43;10.88;;;20.90;87.30;;;;;;4993955;28;20104;-55
2023/05/08 11:54:55;;;;;;;13.13;11.77;;;20.90;85.70;;;;;;4994104;28;20038;-55
2023/05/08 11:57:22;;;;;;;11.43;10.32;;;20.90;86.40;;;;;;4994017;28;20392;-55
2023/05/08 11:59:50;;;;;;;10.65;9.65;;;21.00;87.00;;;;;;4993930;28;20070;-55
2023/05/08 12:02:16;;;;;;;10.82;9.75;;;21.00;86.40;;;;;;4993902;28;20039;-55
2023/05/08 12:04:46;;;;;;;12.32;11.13;;;21.00;87.10;;;;;;4993876;28;20065;-55
2023/05/08 12:07:11;;;;;;;11.63;10.32;;;21.10;87.50;;;;;;4993910;28;20117;-55
2023/05/08 12:09:37;;;;;;;11.50;9.32;;;21.10;87.90;;;;;;4995753;28;20467;-55
2023/05/08 12:12:03;;;;;;;11.23;10.13;;;21.10;87.80;;;;;;5013415;28;20126;-55
2023/05/08 12:14:29;;;;;;;10.57;9.57;;;21.20;87.20;;;;;;5013036;28;20061;-55
2023/05/08 12:16:54;;;;;;;11.52;10.43;;;21.20;87.00;;;;;;5013432;28;20045;-55
2023/05/08 12:19:20;;;;;;;10.57;9.48;;;21.20;86.00;;;;;;5012964;28;20121;-56
2023/05/08 12:21:50;;;;;;;10.98;9.88;;;21.30;86.00;;;;;;5013195;28;20042;-55
2023/05/08 12:24:21;;;;;;;14.15;11.48;;;21.30;85.50;;;;;;5012908;28;20062;-55
2023/05/08 12:26:48;;;;;;;12.77;11.60;;;21.30;85.40;;;;;;5011780;28;20037;-55
2023/05/08 12:29:17;;;;;;;12.77;11.27;;;21.30;85.30;;;;;;5012357;28;20149;-55
2023/05/08 12:31:42;;;;;;;11.15;10.02;;;21.30;85.50;;;;;;5012366;28;20064;-56
2023/05/08 12:34:08;;;;;;;13.23;10.85;;;21.30;86.40;;;;;;5012284;28;20561;-55
2023/05/08 12:36:35;;;;;;;11.27;10.13;;;21.40;87.00;;;;;;5012425;28;20045;-56
2023/05/08 12:39:17;;;;;;;10.50;9.00;;;21.50;87.20;;;;;;5012840;28;20045;-55
2023/05/08 12:41:51;;;;;;;9.13;8.23;;;21.50;85.20;;;;;;5011976;28;20077;-55
2023/05/08 12:44:21;;;;;;;9.75;8.75;;;21.50;86.10;;;;;;5010799;28;20407;-55